Time;durP1;ratioP1;P1;durP2;ratioP2;P2;SDS_P1;SDS_P2;PMS_P1;PMS_P2;Temp;Humidity;BMP_temperature;BMP_pressure;BME280_temperature;BME280_humidity;BME280_pressure;Samples;Min_cycle;Max_cycle;Signal;HPM_P1;HPM_P2
2023/10/06 00:01:44;;;;;;;8.87;3.00;;;;;;;14.12;100.00;102889.25;4977871;28;20444;-72
2023/10/06 00:04:14;;;;;;;9.23;3.70;;;;;;;13.97;100.00;102889.94;4962923;28;20449;-73
2023/10/06 00:06:41;;;;;;;9.40;3.97;;;;;;;13.32;100.00;102769.50;4960062;28;21016;-73
2023/10/06 00:09:09;;;;;;;10.47;4.20;;;;;;;13.93;100.00;102893.16;4960672;28;20538;-73
2023/10/06 00:11:37;;;;;;;9.47;3.23;;;;;;;13.17;100.00;102749.63;4960903;28;20475;-73
2023/10/06 00:14:19;;;;;;;8.93;3.57;;;;;;;13.32;100.00;102777.59;4962765;28;20446;-73
2023/10/06 00:16:45;;;;;;;9.10;3.70;;;;;;;13.43;100.00;102800.69;4964379;28;20437;-73
2023/10/06 00:21:47;;;;;;;6.83;2.90;;;;;;;13.51;100.00;102789.03;4964561;28;20837;-73
2023/10/06 00:24:13;;;;;;;9.20;3.50;;;;;;;13.91;100.00;102849.31;4964283;28;20465;-73
2023/10/06 00:26:42;;;;;;;7.80;3.30;;;;;;;13.93;100.00;102848.13;4964183;28;20477;-73
2023/10/06 00:29:17;;;;;;;9.07;3.33;;;;;;;13.68;100.00;102804.19;4964131;28;20187;-73
2023/10/06 00:31:47;;;;;;;7.27;3.03;;;;;;;14.15;100.00;102864.59;4962259;28;20572;-73
2023/10/06 00:34:16;;;;;;;12.10;3.40;;;;;;;14.16;100.00;102863.59;4961076;28;20446;-73
2023/10/06 00:36:41;;;;;;;6.57;2.80;;;;;;;13.42;100.00;102758.53;4963946;28;20446;-73
2023/10/06 00:39:12;;;;;;;8.03;2.53;;;;;;;14.20;100.00;102879.28;4963115;28;20885;-73
2023/10/06 00:41:43;;;;;;;10.73;4.00;;;;;;;13.81;100.00;102816.28;4963409;28;20645;-73
2023/10/06 00:44:09;;;;;;;8.93;2.70;;;;;;;14.08;100.00;102869.84;4963774;28;20441;-73
2023/10/06 00:46:34;;;;;;;6.60;3.17;;;;;;;14.18;100.00;102856.16;4963230;28;21031;-73
2023/10/06 00:49:04;;;;;;;8.43;2.73;;;;;;;13.92;100.00;102829.44;4963316;28;20187;-73
2023/10/06 00:51:30;;;;;;;7.60;2.83;;;;;;;13.40;100.00;102744.41;4964186;28;20193;-73
2023/10/06 00:53:56;;;;;;;5.47;2.00;;;;;;;13.43;100.00;102729.75;4966110;28;20952;-73
2023/10/06 00:56:25;;;;;;;9.40;3.10;;;;;;;13.47;100.00;102729.22;4965679;28;20542;-73
2023/10/06 00:58:52;;;;;;;8.70;3.10;;;;;;;13.47;100.00;102752.66;4968683;28;20229;-73
2023/10/06 01:01:18;;;;;;;8.70;3.23;;;;;;;13.76;100.00;102768.25;4963349;28;20445;-73
2023/10/06 01:03:48;;;;;;;13.93;3.20;;;;;;;14.11;100.00;102829.00;4966152;28;20978;-73
2023/10/06 01:06:16;;;;;;;9.47;3.50;;;;;;;13.81;100.00;102779.38;4963008;28;20190;-73
2023/10/06 01:08:48;;;;;;;7.47;2.90;;;;;;;13.49;100.00;102732.59;4981312;28;20492;-73
2023/10/06 01:11:17;;;;;;;8.67;3.27;;;;;;;13.92;100.00;102824.03;4966634;28;20863;-73
2023/10/06 01:13:55;;;;;;;8.53;3.30;;;;;;;14.00;100.00;102805.09;4981121;28;20497;-73
2023/10/06 01:16:29;;;;;;;9.60;3.33;;;;;;;14.07;100.00;102816.06;4961860;28;20450;-73
2023/10/06 01:19:01;;;;;;;14.73;3.97;;;;;;;13.95;100.00;102792.13;4981149;28;20999;-73
2023/10/06 01:21:28;;;;;;;9.63;3.03;;;;;;;13.68;100.00;102720.59;4964973;28;22576;-73
2023/10/06 01:24:11;;;;;;;9.50;3.10;;;;;;;13.35;100.00;102676.69;4965574;28;20444;-73
2023/10/06 01:26:41;;;;;;;8.50;3.47;;;;;;;13.87;100.00;102757.09;4965337;28;20453;-73
2023/10/06 01:29:15;;;;;;;8.27;3.00;;;;;;;14.01;100.00;102777.94;4967431;28;20465;-73
2023/10/06 01:31:41;;;;;;;10.80;3.80;;;;;;;13.69;100.00;102714.19;4964842;28;20508;-73
2023/10/06 01:34:11;;;;;;;10.47;3.80;;;;;;;14.04;100.00;102768.66;4966844;28;20525;-73
2023/10/06 01:36:37;;;;;;;8.37;3.33;;;;;;;13.84;100.00;102722.38;4964489;28;20460;-73
2023/10/06 01:39:04;;;;;;;9.30;2.57;;;;;;;13.38;100.00;102660.19;4965440;28;20844;-73
2023/10/06 01:41:34;;;;;;;8.60;3.20;;;;;;;13.32;100.00;102655.47;4967210;28;20444;-73
2023/10/06 01:44:01;;;;;;;14.70;3.50;;;;;;;13.31;100.00;102659.19;4964109;28;20445;-73
2023/10/06 01:46:27;;;;;;;9.67;2.90;;;;;;;13.44;100.00;102666.72;4979579;28;20437;-73
2023/10/06 01:48:53;;;;;;;6.77;2.90;;;;;;;13.40;100.00;102646.53;4966261;28;20443;-73
2023/10/06 01:51:19;;;;;;;10.47;3.23;;;;;;;13.48;100.00;102649.19;4964864;28;20447;-73
2023/10/06 01:53:44;;;;;;;8.00;3.17;;;;;;;13.82;100.00;102710.06;4965109;28;20213;-73
2023/10/06 01:56:10;;;;;;;9.80;3.30;;;;;;;13.91;100.00;102719.81;4966933;28;20442;-73
2023/10/06 01:58:36;;;;;;;7.93;3.50;;;;;;;14.01;100.00;102747.44;4965587;28;20214;-73
2023/10/06 02:01:05;;;;;;;9.07;2.90;;;;;;;14.03;100.00;102731.91;4965662;28;20198;-73
2023/10/06 02:03:37;;;;;;;7.80;3.43;;;;;;;13.19;100.00;102639.84;4965635;28;20896;-73
2023/10/06 02:06:03;;;;;;;9.67;3.77;;;;;;;14.04;100.00;102746.25;4964828;28;20438;-73
2023/10/06 02:08:30;;;;;;;13.30;4.10;;;;;;;13.79;100.00;102713.97;4964432;28;20541;-73
2023/10/06 02:10:56;;;;;;;14.30;4.17;;;;;;;13.89;100.00;102727.25;4982322;28;20449;-73
2023/10/06 02:13:21;;;;;;;12.80;4.07;;;;;;;13.99;100.00;102733.28;4964661;28;20834;-73
2023/10/06 02:15:58;;;;;;;6.93;3.40;;;;;;;13.93;100.00;102725.88;4967134;28;20190;-73
2023/10/06 02:18:36;;;;;;;10.63;4.63;;;;;;;13.24;100.00;102626.66;4966560;28;20224;-75
2023/10/06 02:21:10;;;;;;;11.63;4.77;;;;;;;14.00;100.00;102732.25;4963861;28;20789;-73
2023/10/06 02:23:41;;;;;;;13.30;5.20;;;;;;;13.92;100.00;102719.66;4963201;28;20884;-73
2023/10/06 02:26:08;;;;;;;12.10;4.60;;;;;;;13.98;100.00;102712.72;4979971;28;20948;-73
2023/10/06 02:28:34;;;;;;;10.53;4.10;;;;;;;13.71;100.00;102693.28;4979109;28;20993;-73
2023/10/06 02:31:05;;;;;;;8.80;4.10;;;;;;;13.72;100.00;102686.84;4964975;28;20544;-73
2023/10/06 02:33:36;;;;;;;15.03;5.40;;;;;;;13.42;100.00;102639.94;4963611;28;20206;-73
2023/10/06 02:36:15;;;;;;;6.27;3.70;;;;;;;13.60;100.00;102625.38;4966066;28;20438;-73
2023/10/06 02:38:46;;;;;;;10.50;3.57;;;;;;;14.06;100.00;102723.47;4966533;28;20859;-73
2023/10/06 02:41:18;;;;;;;9.97;4.60;;;;;;;14.05;100.00;102715.53;4962509;28;20438;-73
2023/10/06 02:43:49;;;;;;;13.43;4.97;;;;;;;12.97;100.00;102541.72;4966472;28;20457;-73
2023/10/06 02:46:16;;;;;;;10.90;5.10;;;;;;;13.98;100.00;102705.47;4964546;28;20478;-73
2023/10/06 02:48:48;;;;;;;12.97;5.43;;;;;;;13.38;100.00;102570.41;4962958;28;20803;-73
2023/10/06 02:51:28;;;;;;;11.90;5.13;;;;;;;13.45;100.00;102591.09;4964148;28;20445;-73
2023/10/06 02:54:09;;;;;;;13.73;5.70;;;;;;;13.59;100.00;102616.44;4966300;28;20452;-74
2023/10/06 02:56:34;;;;;;;10.53;4.30;;;;;;;13.82;100.00;102634.56;4965832;28;20455;-73
2023/10/06 02:59:08;;;;;;;15.47;6.07;;;;;;;13.79;100.00;102631.19;4963191;28;20469;-73
2023/10/06 03:01:38;;;;;;;11.10;4.90;;;;;;;13.28;100.00;102541.81;4959644;28;20492;-74
2023/10/06 03:04:06;;;;;;;12.17;5.00;;;;;;;13.39;100.00;102562.13;4965621;28;20865;-73
2023/10/06 03:06:32;;;;;;;14.47;5.57;;;;;;;13.42;100.00;102559.06;4979882;28;21070;-72
2023/10/06 03:08:57;;;;;;;15.53;6.20;;;;;;;13.79;100.00;102625.78;4964988;28;21018;-73
2023/10/06 03:11:24;;;;;;;14.60;5.50;;;;;;;13.57;100.00;102589.69;4965215;28;20446;-73
2023/10/06 03:13:54;;;;;;;15.10;6.80;;;;;;;13.32;100.00;102548.50;4964422;28;20255;-73
2023/10/06 03:16:21;;;;;;;15.13;5.93;;;;;;;13.76;100.00;102598.34;4962768;28;20917;-73
2023/10/06 03:18:47;;;;;;;12.00;5.47;;;;;;;13.51;100.00;102578.75;4964928;28;20588;-73
2023/10/06 03:23:38;;;;;;;13.40;5.70;;;;;;;13.33;100.00;102546.66;4964961;28;21010;-73
2023/10/06 03:26:12;;;;;;;10.50;5.00;;;;;;;13.93;100.00;102635.00;4962971;28;20241;-73
2023/10/06 03:28:37;;;;;;;9.40;4.70;;;;;;;13.31;100.00;102549.53;4966356;28;20273;-73
2023/10/06 03:31:30;;;;;;;13.43;5.93;;;;;;;13.40;100.00;102547.66;4964221;28;20541;-73
2023/10/06 03:33:55;;;;;;;12.83;5.27;;;;;;;13.48;100.00;102562.94;4965893;28;20198;-73
2023/10/06 03:36:55;;;;;;;11.67;4.93;;;;;;;13.45;100.00;102536.31;4964651;28;21014;-73
2023/10/06 03:39:21;;;;;;;11.10;5.07;;;;;;;13.47;100.00;102539.69;4967015;28;21486;-75
2023/10/06 03:41:50;;;;;;;14.80;4.80;;;;;;;13.90;100.00;102608.38;4964533;28;20461;-75
2023/10/06 03:44:24;;;;;;;13.20;4.70;;;;;;;13.98;100.00;102600.25;4964440;28;20455;-75
2023/10/06 03:46:50;;;;;;;10.80;4.57;;;;;;;13.88;100.00;102609.56;4966112;28;20887;-76
2023/10/06 03:49:18;;;;;;;10.20;4.53;;;;;;;13.92;100.00;102594.72;4966117;28;20473;-76
2023/10/06 03:51:44;;;;;;;15.60;4.50;;;;;;;13.41;100.00;102532.31;4965951;28;20438;-75
2023/10/06 03:54:10;;;;;;;11.47;4.33;;;;;;;13.48;100.00;102528.75;4964542;28;20452;-75
2023/10/06 03:56:36;;;;;;;9.40;4.17;;;;;;;13.19;100.00;102482.69;4965398;28;20449;-75
2023/10/06 03:59:12;;;;;;;13.70;5.00;;;;;;;14.12;100.00;102620.22;4964624;28;21292;-75
2023/10/06 04:01:38;;;;;;;12.63;4.47;;;;;;;14.11;100.00;102625.78;4965632;28;20434;-75
2023/10/06 04:04:04;;;;;;;9.20;4.57;;;;;;;14.13;100.00;102621.91;4963625;28;20448;-76
2023/10/06 04:06:35;;;;;;;13.07;5.13;;;;;;;13.95;100.00;102594.38;4978092;28;20450;-75
2023/10/06 04:09:01;;;;;;;11.20;5.03;;;;;;;13.50;100.00;102544.72;4963325;28;20217;-75
2023/10/06 04:11:29;;;;;;;14.13;5.70;;;;;;;13.34;100.00;102516.84;4962481;28;20864;-75
2023/10/06 04:13:55;;;;;;;13.03;4.93;;;;;;;14.02;100.00;102620.44;4962280;28;20442;-75
2023/10/06 04:16:23;;;;;;;14.93;4.90;;;;;;;13.90;100.00;102608.38;4962048;28;20442;-75
2023/10/06 04:18:49;;;;;;;19.33;4.40;;;;;;;13.92;100.00;102617.16;4962612;28;20264;-75
2023/10/06 04:21:17;;;;;;;12.67;5.40;;;;;;;13.89;100.00;102601.31;4977793;28;20460;-75
2023/10/06 04:23:43;;;;;;;11.57;4.77;;;;;;;13.95;100.00;102615.94;4964163;28;20473;-75
2023/10/06 04:26:10;;;;;;;15.37;5.97;;;;;;;13.25;100.00;102493.66;4961407;28;20578;-75
2023/10/06 04:28:36;;;;;;;13.60;6.33;;;;;;;13.87;100.00;102592.56;4981076;28;20185;-75
2023/10/06 04:31:02;;;;;;;11.13;4.90;;;;;;;13.86;100.00;102595.44;4966385;28;20449;-75
2023/10/06 04:33:31;;;;;;;14.10;6.30;;;;;;;13.91;100.00;102593.03;4964405;28;20469;-75
2023/10/06 04:36:00;;;;;;;15.97;6.33;;;;;;;13.56;100.00;102547.53;4963504;28;20808;-75
2023/10/06 04:38:27;;;;;;;17.23;7.23;;;;;;;13.25;100.00;102490.06;4963997;28;20781;-76
2023/10/06 04:40:52;;;;;;;14.33;5.43;;;;;;;13.05;100.00;102452.81;4966285;28;20980;-75
2023/10/06 04:43:18;;;;;;;15.87;6.60;;;;;;;13.42;100.00;102501.63;4964646;28;20512;-75
2023/10/06 04:45:45;;;;;;;11.80;6.37;;;;;;;13.15;100.00;102476.81;4966656;28;20631;-76
2023/10/06 04:48:12;;;;;;;17.33;6.00;;;;;;;13.53;100.00;102517.41;4965254;28;20191;-76
2023/10/06 04:50:38;;;;;;;13.63;6.80;;;;;;;13.80;100.00;102594.28;4963425;28;20456;-75
2023/10/06 04:53:06;;;;;;;18.30;6.83;;;;;;;13.54;100.00;102527.19;4970110;28;20461;-75
2023/10/06 04:55:37;;;;;;;13.13;6.17;;;;;;;13.21;100.00;102468.03;4967356;28;20481;-75
2023/10/06 04:58:05;;;;;;;11.60;6.80;;;;;;;13.52;100.00;102531.91;4980679;28;20509;-75
2023/10/06 05:00:33;;;;;;;18.17;8.30;;;;;;;13.68;100.00;102550.72;4981071;28;20446;-75
2023/10/06 05:02:59;;;;;;;13.37;7.07;;;;;;;13.47;100.00;102512.72;4965877;28;20501;-76
2023/10/06 05:05:26;;;;;;;13.33;8.10;;;;;;;13.31;100.00;102482.16;4966348;28;20481;-75
2023/10/06 05:07:53;;;;;;;11.73;5.67;;;;;;;13.02;100.00;102438.84;4965501;28;20822;-75
2023/10/06 05:10:25;;;;;;;14.47;7.30;;;;;;;13.10;100.00;102452.25;4965725;28;20453;-75
2023/10/06 05:12:52;;;;;;;12.60;6.60;;;;;;;13.19;100.00;102459.31;4966329;28;20834;-75
2023/10/06 05:15:23;;;;;;;19.43;8.27;;;;;;;13.79;100.00;102560.22;4979899;28;20980;-75
2023/10/06 05:18:02;;;;;;;25.50;7.60;;;;;;;13.71;100.00;102571.94;4981857;28;20469;-75
2023/10/06 05:20:33;;;;;;;13.33;6.93;;;;;;;13.26;100.00;102494.50;4966480;28;20518;-75
2023/10/06 05:23:06;;;;;;;13.93;7.37;;;;;;;13.78;100.00;102574.75;4963480;28;20580;-75
2023/10/06 05:25:33;;;;;;;15.00;7.13;;;;;;;13.16;100.00;102485.75;4982903;28;20971;-75
2023/10/06 05:27:59;;;;;;;12.10;6.83;;;;;;;13.12;100.00;102466.41;4965350;28;20540;-75
2023/10/06 05:30:29;;;;;;;10.83;6.27;;;;;;;13.74;100.00;102579.66;4964670;28;20483;-76
2023/10/06 05:32:59;;;;;;;15.83;7.00;;;;;;;13.78;100.00;102589.06;4966215;28;20473;-75
2023/10/06 05:35:36;;;;;;;12.93;7.23;;;;;;;13.81;100.00;102598.66;4981582;28;20444;-75
2023/10/06 05:38:08;;;;;;;16.83;6.63;;;;;;;13.09;100.00;102464.06;4966116;28;20827;-75
2023/10/06 05:40:37;;;;;;;14.80;7.17;;;;;;;13.04;100.00;102464.56;4965505;28;20445;-75
2023/10/06 05:43:04;;;;;;;16.80;7.20;;;;;;;13.57;100.00;102545.72;4966824;28;21031;-75
2023/10/06 05:45:30;;;;;;;11.60;5.90;;;;;;;13.82;100.00;102576.06;4963792;28;20445;-75
2023/10/06 05:48:06;;;;;;;22.53;7.17;;;;;;;13.70;100.00;102581.00;4966329;28;20466;-75
2023/10/06 05:50:35;;;;;;;13.17;6.23;;;;;;;13.21;100.00;102483.38;4965926;28;20477;-75
2023/10/06 05:53:19;;;;;;;14.10;6.17;;;;;;;13.13;100.00;102484.22;4966612;28;20468;-75
2023/10/06 05:55:49;;;;;;;18.43;6.73;;;;;;;13.82;100.00;102594.94;4966488;28;20437;-75
2023/10/06 05:58:15;;;;;;;11.00;5.27;;;;;;;13.17;100.00;102498.22;4964242;28;20501;-75
2023/10/06 06:00:51;;;;;;;12.80;5.60;;;;;;;13.12;100.00;102486.09;4961319;28;20454;-75
2023/10/06 06:03:20;;;;;;;18.30;6.13;;;;;;;13.57;100.00;102569.97;4970809;28;20506;-75
2023/10/06 06:05:50;;;;;;;14.50;6.23;;;;;;;13.08;100.00;102492.03;4965608;28;20508;-75
2023/10/06 06:08:16;;;;;;;12.37;5.70;;;;;;;13.37;100.00;102539.91;4967119;28;20512;-74
2023/10/06 06:10:41;;;;;;;13.03;6.70;;;;;;;13.50;100.00;102544.72;4967590;28;20956;-75
2023/10/06 06:13:07;;;;;;;14.43;5.63;;;;;;;13.15;100.00;102478.69;4966610;28;20242;-75
2023/10/06 06:15:35;;;;;;;16.03;5.93;;;;;;;13.82;100.00;102564.44;4965854;28;20178;-75
2023/10/06 06:18:01;;;;;;;13.80;6.77;;;;;;;13.68;100.00;102553.41;4981504;28;20458;-75
2023/10/06 06:20:28;;;;;;;10.87;5.80;;;;;;;13.23;100.00;102482.19;4983030;28;20509;-75
2023/10/06 06:22:55;;;;;;;20.40;5.83;;;;;;;13.64;100.00;102552.06;4967018;28;20793;-74
2023/10/06 06:25:23;;;;;;;12.40;5.97;;;;;;;13.74;100.00;102557.22;4965457;28;20794;-75
2023/10/06 06:27:54;;;;;;;13.67;5.83;;;;;;;13.15;100.00;102482.22;4970335;28;20480;-74
2023/10/06 06:30:19;;;;;;;11.90;5.50;;;;;;;13.53;100.00;102531.72;4983206;28;20447;-74
2023/10/06 06:32:48;;;;;;;14.47;5.60;;;;;;;13.73;100.00;102539.38;4968701;28;20461;-75
2023/10/06 06:35:14;;;;;;;21.93;6.40;;;;;;;13.21;100.00;102451.03;4967213;28;20470;-75
2023/10/06 06:37:42;;;;;;;13.30;5.50;;;;;;;13.11;100.00;102446.72;4968738;28;20422;-75
2023/10/06 06:40:10;;;;;;;16.33;5.83;;;;;;;12.87;100.00;102431.50;4968662;28;20433;-75
2023/10/06 06:42:36;;;;;;;11.77;6.03;;;;;;;13.83;100.00;102549.91;4962846;28;20992;-75
2023/10/06 06:45:03;;;;;;;13.67;5.60;;;;;;;13.55;100.00;102510.00;4966037;28;20864;-74
2023/10/06 06:47:29;;;;;;;13.47;5.30;;;;;;;13.16;100.00;102440.78;4967172;28;20438;-74
2023/10/06 06:49:55;;;;;;;10.83;4.80;;;;;;;13.31;100.00;102435.53;4967745;28;20445;-75
2023/10/06 06:52:21;;;;;;;17.17;7.03;;;;;;;13.56;100.00;102490.09;4966789;28;20249;-75
2023/10/06 06:54:48;;;;;;;13.23;5.83;;;;;;;13.29;100.00;102448.31;4966456;28;20968;-75
2023/10/06 06:57:17;;;;;;;11.00;5.73;;;;;;;13.97;100.00;102570.72;4965650;28;20785;-75
2023/10/06 06:59:44;;;;;;;13.40;5.70;;;;;;;13.63;100.00;102499.16;4967218;28;20473;-76
2023/10/06 07:02:10;;;;;;;12.30;5.20;;;;;;;13.95;100.00;102543.94;4964513;28;20510;-75
2023/10/06 07:04:36;;;;;;;11.37;5.07;;;;;;;13.95;100.00;102535.84;4982741;28;20439;-75
2023/10/06 07:07:02;;;;;;;17.83;5.70;;;;;;;14.01;100.00;102548.63;4967268;28;20822;-75
2023/10/06 07:09:27;;;;;;;17.13;5.70;;;;;;;14.06;100.00;102550.78;4968222;28;20178;-75
2023/10/06 07:11:56;;;;;;;14.87;6.10;;;;;;;13.39;100.00;102451.63;4964311;28;20245;-74
2023/10/06 07:14:22;;;;;;;14.60;5.80;;;;;;;13.67;100.00;102492.38;4965471;28;20217;-74
2023/10/06 07:16:47;;;;;;;13.07;4.77;;;;;;;13.39;100.00;102430.06;4968262;28;20480;-75
2023/10/06 07:19:14;;;;;;;14.33;4.87;;;;;;;13.39;100.00;102408.50;4968276;28;20271;-75
2023/10/06 07:21:41;;;;;;;14.27;5.70;;;;;;;14.08;100.00;102521.75;4964966;28;20191;-75
2023/10/06 07:24:06;;;;;;;12.97;5.23;;;;;;;13.62;100.00;102442.72;4965748;28;20488;-74
2023/10/06 07:26:32;;;;;;;9.23;4.83;;;;;;;13.66;100.00;102446.75;4967203;28;20433;-74
2023/10/06 07:28:59;;;;;;;10.13;5.33;;;;;;;13.59;100.00;102433.13;4967331;28;20182;-75
2023/10/06 07:31:27;;;;;;;13.73;5.60;;;;;;;13.52;100.00;102421.41;4964123;28;20190;-74
2023/10/06 07:33:54;;;;;;;13.57;5.50;;;;;;;13.88;100.00;102472.84;4965810;28;20434;-75
2023/10/06 07:36:20;;;;;;;7.63;4.10;;;;;;;13.57;100.00;102438.72;4965705;28;20489;-75
2023/10/06 07:38:48;;;;;;;13.30;4.80;;;;;;;13.91;100.00;102493.22;4975630;28;20477;-75
2023/10/06 07:41:17;;;;;;;13.57;5.77;;;;;;;13.93;100.00;102469.63;4964340;28;20437;-74
2023/10/06 07:43:46;;;;;;;13.20;4.83;;;;;;;14.05;100.00;102487.03;4965672;28;20483;-75
2023/10/06 07:46:13;;;;;;;10.17;5.37;;;;;;;13.73;100.00;102413.47;4965007;28;20848;-75
2023/10/06 07:48:39;;;;;;;17.70;6.00;;;;;;;13.77;100.00;102438.22;4965108;28;20945;-75
2023/10/06 07:51:08;;;;;;;10.03;4.97;;;;;;;13.87;100.00;102446.06;4965867;28;20437;-75
2023/10/06 07:53:38;;;;;;;11.43;4.20;;;;;;;13.79;100.00;102428.91;4966299;28;20983;-75
2023/10/06 07:56:08;;;;;;;15.17;4.77;;;;;;;13.64;100.00;102398.38;4964557;28;20534;-74
2023/10/06 07:58:38;;;;;;;12.97;6.00;;;;;;;14.42;100.00;102528.56;4963704;28;20516;-75
2023/10/06 08:01:08;;;;;;;12.70;5.10;;;;;;;14.32;100.00;102512.63;4963529;28;20533;-75
2023/10/06 08:03:41;;;;;;;10.40;5.13;;;;;;;13.88;100.00;102440.47;4966077;28;20461;-75
2023/10/06 08:06:13;;;;;;;15.13;5.30;;;;;;;14.19;100.00;102488.09;4965300;28;20960;-75
2023/10/06 08:08:39;;;;;;;10.83;5.80;;;;;;;14.11;100.00;102477.38;4965871;28;20448;-75
2023/10/06 08:11:06;;;;;;;19.37;6.43;;;;;;;13.58;100.00;102423.38;4965543;28;20445;-75
2023/10/06 08:13:33;;;;;;;13.60;5.60;;;;;;;13.60;100.00;102437.50;4967283;28;20209;-75
2023/10/06 08:16:02;;;;;;;15.03;5.70;;;;;;;14.17;100.00;102520.66;4963916;28;20524;-74
2023/10/06 08:18:29;;;;;;;10.80;5.30;;;;;;;13.89;100.00;102479.09;4979593;28;20473;-74
2023/10/06 08:21:01;;;;;;;14.90;5.63;;;;;;;14.01;100.00;102512.72;4966523;28;20445;-75
2023/10/06 08:23:28;;;;;;;17.07;6.43;;;;;;;13.52;100.00;102457.28;4981057;28;20487;-75
2023/10/06 08:25:56;;;;;;;15.60;6.30;;;;;;;13.44;100.00;102449.22;4965323;28;20441;-75
2023/10/06 08:28:26;;;;;;;12.80;5.83;;;;;;;14.18;100.00;102578.19;4979431;28;20449;-74
2023/10/06 08:30:52;;;;;;;16.33;6.80;;;;;;;14.01;100.00;102591.78;4960954;28;20446;-75
2023/10/06 08:33:17;;;;;;;14.67;6.93;;;;;;;13.99;100.00;102583.03;4965031;28;20952;-75
2023/10/06 08:35:44;;;;;;;15.27;6.93;;;;;;;13.88;100.00;102571.81;4965967;28;20448;-75
2023/10/06 08:38:10;;;;;;;15.10;7.70;;;;;;;13.53;100.00;102517.41;4964790;28;20582;-75
2023/10/06 08:40:44;;;;;;;18.63;7.17;;;;;;;13.52;100.00;102550.78;4963729;28;20446;-75
2023/10/06 08:43:13;;;;;;;15.63;7.17;;;;;;;13.57;100.00;102541.16;4964731;28;20617;-75
2023/10/06 08:45:42;;;;;;;14.60;7.33;;;;;;;14.15;100.00;102633.34;4963188;28;20673;-75
2023/10/06 08:48:13;;;;;;;14.87;7.90;;;;;;;14.17;100.00;102655.59;4961337;28;20448;-75
2023/10/06 08:50:41;;;;;;;14.40;8.13;;;;;;;14.14;100.00;102644.31;4962584;28;20430;-75
2023/10/06 08:53:10;;;;;;;17.87;8.60;;;;;;;14.00;100.00;102606.31;4964584;28;20453;-75
2023/10/06 08:55:38;;;;;;;17.00;8.20;;;;;;;14.36;100.00;102657.00;4962292;28;20545;-75
2023/10/06 08:58:04;;;;;;;17.37;8.30;;;;;;;14.28;100.00;102623.81;4962953;28;20859;-75
2023/10/06 09:00:32;;;;;;;16.00;8.00;;;;;;;14.36;100.00;102658.84;4962179;28;20433;-76
2023/10/06 09:03:07;;;;;;;16.40;8.37;;;;;;;14.42;100.00;102677.88;4961276;28;20234;-75
2023/10/06 09:05:35;;;;;;;13.70;7.03;;;;;;;13.73;100.00;102591.44;4963378;28;21114;-75
2023/10/06 09:08:06;;;;;;;13.53;7.10;;;;;;;14.44;100.00;102710.94;4963518;28;20476;-75
2023/10/06 09:10:33;;;;;;;14.20;6.83;;;;;;;13.88;100.00;102621.19;4960859;28;21103;-76
2023/10/06 09:13:08;;;;;;;18.87;7.83;;;;;;;13.78;100.00;102602.56;4966454;28;20461;-75
2023/10/06 09:15:35;;;;;;;14.73;6.57;;;;;;;13.94;100.00;102635.84;4967020;28;20441;-75
2023/10/06 09:18:15;;;;;;;8.63;5.83;;;;;;;13.93;100.00;102647.66;4982724;28;20469;-75
2023/10/06 09:20:40;;;;;;;17.73;5.97;;;;;;;14.21;100.00;102677.69;4980916;28;20837;-74
2023/10/06 09:23:06;;;;;;;16.93;6.80;;;;;;;14.70;100.00;102734.09;4965291;28;20466;-74
2023/10/06 09:25:42;;;;;;;12.10;5.80;;;;;;;14.07;100.00;102644.19;4964211;28;20217;-75
2023/10/06 09:28:13;;;;;;;9.60;5.80;;;;;;;14.73;100.00;102724.78;4966635;28;20200;-75
2023/10/06 09:31:03;;;;;;;10.47;6.03;;;;;;;14.09;100.00;102620.59;4964633;28;20921;-75
2023/10/06 09:33:43;;;;;;;11.13;7.00;;;;;;;14.77;100.00;102718.00;4968194;28;20453;-75
2023/10/06 09:36:17;;;;;;;12.80;6.40;;;;;;;14.92;100.00;102694.56;4966294;28;20460;-75
2023/10/06 09:38:44;;;;;;;13.30;6.77;;;;;;;14.83;100.00;102682.97;4966599;28;20832;-75
2023/10/06 09:41:11;;;;;;;13.40;6.90;;;;;;;14.83;100.00;102664.06;4978610;28;20445;-75
2023/10/06 09:43:40;;;;;;;17.03;6.63;;;;;;;15.11;100.00;102682.41;4966178;28;20453;-74
2023/10/06 09:46:07;;;;;;;15.93;6.60;;;;;;;15.16;100.00;102674.59;4968669;28;20536;-75
2023/10/06 09:48:35;;;;;;;15.60;6.37;;;;;;;14.94;100.00;102651.16;4967682;28;20437;-75
2023/10/06 09:51:06;;;;;;;13.60;4.90;;;;;;;14.59;100.00;102575.19;4965668;28;20462;-75
2023/10/06 09:53:36;;;;;;;12.00;5.70;;;;;;;14.53;100.00;102552.44;4969169;28;20976;-75
2023/10/06 09:56:03;;;;;;;12.33;6.07;;;;;;;15.18;100.00;102641.94;4966389;28;20920;-75
2023/10/06 09:58:30;;;;;;;10.47;5.60;;;;;;;14.69;100.00;102552.28;4965960;28;20481;-75
2023/10/06 10:00:57;;;;;;;14.13;5.73;;;;;;;14.85;100.00;102585.56;4965514;28;20601;-75
2023/10/06 10:03:23;;;;;;;14.53;5.67;;;;;;;15.34;100.00;102628.25;4967782;28;20783;-74
2023/10/06 10:05:52;;;;;;;13.73;5.90;;;;;;;15.44;100.00;102642.31;4960394;28;20446;-74
2023/10/06 10:08:18;;;;;;;15.80;4.70;;;;;;;14.86;100.00;102523.22;4967115;28;20476;-74
2023/10/06 10:10:47;;;;;;;13.40;5.57;;;;;;;14.90;100.00;102524.53;4968700;28;20601;-75
2023/10/06 10:13:12;;;;;;;9.67;5.10;;;;;;;15.61;100.00;102621.31;4968046;28;20519;-75
2023/10/06 10:16:25;;;;;;;12.50;4.90;;;;;;;15.62;100.00;102616.75;4964603;28;20858;-75
2023/10/06 10:19:12;;;;;;;12.80;5.20;;;;;;;15.21;100.00;102561.31;4963955;28;20220;-75
2023/10/06 10:21:41;;;;;;;21.07;6.63;;;;;;;14.97;100.00;102518.38;4966064;28;20444;-75
2023/10/06 10:24:09;;;;;;;11.23;4.60;;;;;;;15.57;100.00;102583.00;4966985;28;20461;-75
2023/10/06 10:26:39;;;;;;;15.10;6.27;;;;;;;15.03;100.00;102507.66;4962227;28;20458;-75
2023/10/06 10:29:17;;;;;;;13.87;5.40;;;;;;;15.62;100.00;102585.13;4967197;28;20442;-75
2023/10/06 10:31:54;;;;;;;12.13;4.97;;;;;;;15.16;100.00;102482.69;4967571;28;20488;-76
2023/10/06 10:34:23;;;;;;;16.70;6.10;;;;;;;15.31;100.00;102488.88;4983189;28;20476;-75
2023/10/06 10:37:14;;;;;;;7.20;4.07;;;;;;;15.97;100.00;102582.66;4964858;28;20465;-75
2023/10/06 10:39:48;;;;;;;13.77;4.97;;;;;;;15.94;100.00;102581.19;4967531;28;20477;-75
2023/10/06 10:42:21;;;;;;;10.13;3.87;;;;;;;15.90;100.00;102558.22;4979167;28;20470;-74
2023/10/06 10:44:50;;;;;;;10.37;4.53;;;;;;;15.46;100.00;102480.72;4981291;28;20446;-74
2023/10/06 10:47:20;;;;;;;10.70;4.97;;;;;;;16.03;100.00;102571.91;4957056;28;20524;-74
2023/10/06 10:49:47;;;;;;;14.45;4.80;;;;;;;15.99;100.00;102565.19;4957743;28;20500;-74
2023/10/06 10:52:14;;;;;;;15.13;4.47;;;;;;;15.76;100.00;102532.06;4958186;28;20489;-74
2023/10/06 10:54:40;;;;;;;11.20;4.93;;;;;;;15.42;100.00;102463.22;4964973;28;20760;-74
2023/10/06 10:57:18;;;;;;;12.77;4.30;;;;;;;16.07;100.00;102547.16;4968185;28;20433;-75
2023/10/06 11:02:40;;;;;;;10.10;4.20;;;;;;;16.16;100.00;102521.63;4967738;28;20512;-74
2023/10/06 11:05:06;;;;;;;12.30;5.43;;;;;;;15.52;100.00;102419.63;4966039;28;20965;-74
2023/10/06 11:07:35;;;;;;;15.10;4.50;;;;;;;15.49;100.00;102392.97;4965991;28;20577;-75
2023/10/06 11:10:01;;;;;;;14.20;4.97;;;;;;;15.48;100.00;102388.63;4967466;28;20452;-74
2023/10/06 11:12:28;;;;;;;12.73;3.80;;;;;;;16.16;100.00;102473.72;4967956;28;20477;-75
2023/10/06 11:15:02;;;;;;;11.70;4.40;;;;;;;16.32;100.00;102488.03;4983697;28;20434;-74
2023/10/06 11:17:29;;;;;;;8.90;3.70;;;;;;;16.45;100.00;102458.31;4967391;28;20463;-75
2023/10/06 11:20:33;;;;;;;12.40;3.47;;;;;;;16.48;100.00;102455.19;4980246;28;20543;-74
2023/10/06 11:22:54;;;;;;;10.13;3.77;;;;;;;16.49;100.00;102440.66;4966421;28;20469;-75
2023/10/06 11:25:26;;;;;;;11.30;3.93;;;;;;;16.21;100.00;102365.69;4966616;28;20445;-75
2023/10/06 11:28:12;;;;;;;5.80;2.80;;;;;;;16.64;100.00;102452.19;4966969;28;20421;-75
2023/10/06 11:30:40;;;;;;;13.30;4.03;;;;;;;16.30;100.00;102382.59;4967815;28;20940;-74